sensor_id;sensor_type;location;lat;lon;timestamp;P1;durP1;ratioP1;P2;durP2;ratioP2
11100;SDS011;5604;50.722;7.078;2023-09-08T00:01:33;9.07;;;6.17;;
11100;SDS011;5604;50.722;7.078;2023-09-08T00:04:02;5.33;;;4.83;;
11100;SDS011;5604;50.722;7.078;2023-09-08T00:06:30;7.80;;;5.30;;
11100;SDS011;5604;50.722;7.078;2023-09-08T00:08:58;6.13;;;5.63;;
11100;SDS011;5604;50.722;7.078;2023-09-08T00:11:28;6.37;;;5.70;;
11100;SDS011;5604;50.722;7.078;2023-09-08T00:13:56;6.27;;;5.60;;
11100;SDS011;5604;50.722;7.078;2023-09-08T00:16:24;7.33;;;5.90;;
11100;SDS011;5604;50.722;7.078;2023-09-08T00:18:52;5.73;;;5.23;;
11100;SDS011;5604;50.722;7.078;2023-09-08T00:21:20;9.03;;;5.90;;
11100;SDS011;5604;50.722;7.078;2023-09-08T00:23:48;9.07;;;5.77;;
11100;SDS011;5604;50.722;7.078;2023-09-08T00:26:16;6.17;;;5.57;;
11100;SDS011;5604;50.722;7.078;2023-09-08T00:28:46;6.47;;;5.87;;
11100;SDS011;5604;50.722;7.078;2023-09-08T00:31:14;7.53;;;6.77;;
11100;SDS011;5604;50.722;7.078;2023-09-08T00:33:43;7.40;;;6.50;;
11100;SDS011;5604;50.722;7.078;2023-09-08T00:36:11;6.47;;;5.87;;
11100;SDS011;5604;50.722;7.078;2023-09-08T00:38:39;7.30;;;6.37;;
11100;SDS011;5604;50.722;7.078;2023-09-08T00:41:07;7.67;;;6.10;;
11100;SDS011;5604;50.722;7.078;2023-09-08T00:43:35;7.50;;;6.20;;
11100;SDS011;5604;50.722;7.078;2023-09-08T00:46:05;11.03;;;6.33;;
11100;SDS011;5604;50.722;7.078;2023-09-08T00:48:34;6.70;;;6.07;;
11100;SDS011;5604;50.722;7.078;2023-09-08T00:51:02;6.17;;;5.57;;
11100;SDS011;5604;50.722;7.078;2023-09-08T00:53:32;7.37;;;5.80;;
11100;SDS011;5604;50.722;7.078;2023-09-08T00:56:00;7.27;;;5.83;;
11100;SDS011;5604;50.722;7.078;2023-09-08T00:58:28;7.77;;;5.80;;
11100;SDS011;5604;50.722;7.078;2023-09-08T01:00:57;9.73;;;6.00;;
11100;SDS011;5604;50.722;7.078;2023-09-08T01:03:27;6.67;;;6.07;;
11100;SDS011;5604;50.722;7.078;2023-09-08T01:05:55;6.60;;;6.00;;
11100;SDS011;5604;50.722;7.078;2023-09-08T01:08:23;10.67;;;6.13;;
11100;SDS011;5604;50.722;7.078;2023-09-08T01:10:52;6.43;;;5.70;;
11100;SDS011;5604;50.722;7.078;2023-09-08T01:13:21;6.57;;;6.00;;
11100;SDS011;5604;50.722;7.078;2023-09-08T01:15:49;6.20;;;5.53;;
11100;SDS011;5604;50.722;7.078;2023-09-08T01:18:17;7.83;;;5.80;;
11100;SDS011;5604;50.722;7.078;2023-09-08T01:20:55;7.13;;;5.60;;
11100;SDS011;5604;50.722;7.078;2023-09-08T01:23:37;8.20;;;6.33;;
11100;SDS011;5604;50.722;7.078;2023-09-08T01:26:17;6.67;;;5.80;;
11100;SDS011;5604;50.722;7.078;2023-09-08T01:28:48;6.90;;;6.20;;
11100;SDS011;5604;50.722;7.078;2023-09-08T01:31:17;8.63;;;6.37;;
11100;SDS011;5604;50.722;7.078;2023-09-08T01:33:46;8.50;;;6.27;;
11100;SDS011;5604;50.722;7.078;2023-09-08T01:36:14;6.50;;;5.90;;
11100;SDS011;5604;50.722;7.078;2023-09-08T01:38:42;7.20;;;6.60;;
11100;SDS011;5604;50.722;7.078;2023-09-08T01:41:10;7.07;;;6.37;;
11100;SDS011;5604;50.722;7.078;2023-09-08T01:43:39;7.67;;;6.97;;
11100;SDS011;5604;50.722;7.078;2023-09-08T01:46:07;8.03;;;7.23;;
11100;SDS011;5604;50.722;7.078;2023-09-08T01:48:35;7.57;;;6.77;;
11100;SDS011;5604;50.722;7.078;2023-09-08T01:51:03;9.37;;;7.10;;
11100;SDS011;5604;50.722;7.078;2023-09-08T01:53:31;7.90;;;7.20;;
11100;SDS011;5604;50.722;7.078;2023-09-08T01:56:00;9.33;;;7.07;;
11100;SDS011;5604;50.722;7.078;2023-09-08T01:58:28;7.33;;;6.63;;
11100;SDS011;5604;50.722;7.078;2023-09-08T02:00:59;7.90;;;7.10;;
11100;SDS011;5604;50.722;7.078;2023-09-08T02:03:34;7.40;;;6.70;;
11100;SDS011;5604;50.722;7.078;2023-09-08T02:06:02;7.77;;;6.83;;
11100;SDS011;5604;50.722;7.078;2023-09-08T02:08:30;7.23;;;6.63;;
11100;SDS011;5604;50.722;7.078;2023-09-08T02:10:58;7.73;;;7.00;;
11100;SDS011;5604;50.722;7.078;2023-09-08T02:13:27;9.63;;;6.77;;
11100;SDS011;5604;50.722;7.078;2023-09-08T02:15:55;9.40;;;7.37;;
11100;SDS011;5604;50.722;7.078;2023-09-08T02:18:25;7.60;;;6.63;;
11100;SDS011;5604;50.722;7.078;2023-09-08T02:20:53;7.83;;;6.50;;
11100;SDS011;5604;50.722;7.078;2023-09-08T02:23:21;8.97;;;6.97;;
11100;SDS011;5604;50.722;7.078;2023-09-08T02:25:49;9.17;;;7.20;;
11100;SDS011;5604;50.722;7.078;2023-09-08T02:28:17;8.30;;;6.60;;
11100;SDS011;5604;50.722;7.078;2023-09-08T02:30:46;9.47;;;7.30;;
11100;SDS011;5604;50.722;7.078;2023-09-08T02:33:15;8.07;;;7.37;;
11100;SDS011;5604;50.722;7.078;2023-09-08T02:35:45;8.20;;;7.30;;
11100;SDS011;5604;50.722;7.078;2023-09-08T02:38:14;7.83;;;7.03;;
11100;SDS011;5604;50.722;7.078;2023-09-08T02:40:42;8.27;;;7.47;;
11100;SDS011;5604;50.722;7.078;2023-09-08T02:43:11;7.70;;;7.00;;
11100;SDS011;5604;50.722;7.078;2023-09-08T02:45:41;8.27;;;6.63;;
11100;SDS011;5604;50.722;7.078;2023-09-08T02:48:09;7.93;;;6.97;;
11100;SDS011;5604;50.722;7.078;2023-09-08T02:50:37;7.93;;;6.97;;
11100;SDS011;5604;50.722;7.078;2023-09-08T02:53:07;8.03;;;6.23;;
11100;SDS011;5604;50.722;7.078;2023-09-08T02:55:35;7.00;;;6.40;;
11100;SDS011;5604;50.722;7.078;2023-09-08T02:58:03;7.17;;;6.47;;
11100;SDS011;5604;50.722;7.078;2023-09-08T03:00:31;7.53;;;6.83;;
11100;SDS011;5604;50.722;7.078;2023-09-08T03:03:00;7.57;;;6.77;;
11100;SDS011;5604;50.722;7.078;2023-09-08T03:05:28;6.93;;;6.33;;
11100;SDS011;5604;50.722;7.078;2023-09-08T03:07:56;8.93;;;6.20;;
11100;SDS011;5604;50.722;7.078;2023-09-08T03:10:25;7.53;;;6.80;;
11100;SDS011;5604;50.722;7.078;2023-09-08T03:12:56;7.37;;;6.43;;
11100;SDS011;5604;50.722;7.078;2023-09-08T03:15:24;7.50;;;6.63;;
11100;SDS011;5604;50.722;7.078;2023-09-08T03:17:54;7.40;;;6.77;;
11100;SDS011;5604;50.722;7.078;2023-09-08T03:20:22;7.00;;;6.33;;
11100;SDS011;5604;50.722;7.078;2023-09-08T03:22:50;6.83;;;6.13;;
11100;SDS011;5604;50.722;7.078;2023-09-08T03:25:18;10.43;;;6.57;;
11100;SDS011;5604;50.722;7.078;2023-09-08T03:27:47;7.97;;;7.27;;
11100;SDS011;5604;50.722;7.078;2023-09-08T03:30:15;9.13;;;7.30;;
11100;SDS011;5604;50.722;7.078;2023-09-08T03:32:44;7.20;;;6.50;;
11100;SDS011;5604;50.722;7.078;2023-09-08T03:35:13;6.67;;;5.97;;
11100;SDS011;5604;50.722;7.078;2023-09-08T03:37:41;7.13;;;6.43;;
11100;SDS011;5604;50.722;7.078;2023-09-08T03:40:10;8.83;;;6.50;;
11100;SDS011;5604;50.722;7.078;2023-09-08T03:42:38;7.30;;;6.60;;
11100;SDS011;5604;50.722;7.078;2023-09-08T03:45:09;8.20;;;7.00;;
11100;SDS011;5604;50.722;7.078;2023-09-08T03:47:37;7.37;;;6.77;;
11100;SDS011;5604;50.722;7.078;2023-09-08T03:50:06;7.83;;;7.13;;
11100;SDS011;5604;50.722;7.078;2023-09-08T03:52:35;7.50;;;6.77;;
11100;SDS011;5604;50.722;7.078;2023-09-08T03:55:03;9.33;;;7.13;;
11100;SDS011;5604;50.722;7.078;2023-09-08T03:57:32;7.60;;;6.80;;
11100;SDS011;5604;50.722;7.078;2023-09-08T04:00:00;7.47;;;6.77;;
11100;SDS011;5604;50.722;7.078;2023-09-08T04:02:41;7.73;;;7.00;;
11100;SDS011;5604;50.722;7.078;2023-09-08T04:05:09;8.23;;;6.97;;
11100;SDS011;5604;50.722;7.078;2023-09-08T04:07:38;7.30;;;6.60;;
11100;SDS011;5604;50.722;7.078;2023-09-08T04:10:07;7.10;;;6.37;;
11100;SDS011;5604;50.722;7.078;2023-09-08T04:12:36;8.20;;;7.40;;
11100;SDS011;5604;50.722;7.078;2023-09-08T04:15:04;9.37;;;7.03;;
11100;SDS011;5604;50.722;7.078;2023-09-08T04:17:33;8.00;;;7.23;;
11100;SDS011;5604;50.722;7.078;2023-09-08T04:20:04;9.57;;;8.23;;
11100;SDS011;5604;50.722;7.078;2023-09-08T04:22:34;8.77;;;7.87;;
11100;SDS011;5604;50.722;7.078;2023-09-08T04:25:02;10.23;;;7.70;;
11100;SDS011;5604;50.722;7.078;2023-09-08T04:27:32;9.60;;;7.53;;
11100;SDS011;5604;50.722;7.078;2023-09-08T04:30:01;8.47;;;7.53;;
11100;SDS011;5604;50.722;7.078;2023-09-08T04:32:31;8.13;;;7.33;;
11100;SDS011;5604;50.722;7.078;2023-09-08T04:34:59;11.60;;;7.80;;
11100;SDS011;5604;50.722;7.078;2023-09-08T04:37:28;10.40;;;7.97;;
11100;SDS011;5604;50.722;7.078;2023-09-08T04:39:57;8.17;;;7.17;;
11100;SDS011;5604;50.722;7.078;2023-09-08T04:42:25;8.37;;;7.57;;
11100;SDS011;5604;50.722;7.078;2023-09-08T04:44:53;8.37;;;7.53;;
11100;SDS011;5604;50.722;7.078;2023-09-08T04:47:21;10.73;;;7.50;;
11100;SDS011;5604;50.722;7.078;2023-09-08T04:49:49;8.73;;;7.83;;
11100;SDS011;5604;50.722;7.078;2023-09-08T04:52:17;8.33;;;7.50;;
11100;SDS011;5604;50.722;7.078;2023-09-08T04:54:47;8.47;;;7.57;;
11100;SDS011;5604;50.722;7.078;2023-09-08T04:57:15;7.80;;;7.00;;
11100;SDS011;5604;50.722;7.078;2023-09-08T04:59:52;8.37;;;7.57;;
11100;SDS011;5604;50.722;7.078;2023-09-08T05:02:20;8.60;;;7.70;;
11100;SDS011;5604;50.722;7.078;2023-09-08T05:04:49;8.53;;;7.63;;
11100;SDS011;5604;50.722;7.078;2023-09-08T05:07:18;9.60;;;7.83;;
11100;SDS011;5604;50.722;7.078;2023-09-08T05:09:48;8.77;;;7.43;;
11100;SDS011;5604;50.722;7.078;2023-09-08T05:12:17;8.80;;;7.90;;
11100;SDS011;5604;50.722;7.078;2023-09-08T05:14:45;8.07;;;7.27;;
11100;SDS011;5604;50.722;7.078;2023-09-08T05:17:14;8.23;;;7.47;;
11100;SDS011;5604;50.722;7.078;2023-09-08T05:19:42;8.70;;;7.77;;
11100;SDS011;5604;50.722;7.078;2023-09-08T05:22:10;8.17;;;7.37;;
11100;SDS011;5604;50.722;7.078;2023-09-08T05:24:38;8.67;;;7.77;;
11100;SDS011;5604;50.722;7.078;2023-09-08T05:27:10;8.17;;;7.37;;
11100;SDS011;5604;50.722;7.078;2023-09-08T05:29:38;8.47;;;7.37;;
11100;SDS011;5604;50.722;7.078;2023-09-08T05:32:06;10.47;;;7.90;;
11100;SDS011;5604;50.722;7.078;2023-09-08T05:34:34;7.73;;;7.03;;
11100;SDS011;5604;50.722;7.078;2023-09-08T05:37:03;8.80;;;7.30;;
11100;SDS011;5604;50.722;7.078;2023-09-08T05:39:31;9.00;;;7.60;;
11100;SDS011;5604;50.722;7.078;2023-09-08T05:42:01;8.37;;;7.40;;
11100;SDS011;5604;50.722;7.078;2023-09-08T05:44:30;9.90;;;7.30;;
11100;SDS011;5604;50.722;7.078;2023-09-08T05:46:59;8.00;;;7.20;;
11100;SDS011;5604;50.722;7.078;2023-09-08T05:49:27;9.13;;;7.60;;
11100;SDS011;5604;50.722;7.078;2023-09-08T05:51:55;8.23;;;7.43;;
11100;SDS011;5604;50.722;7.078;2023-09-08T05:54:23;7.87;;;7.10;;
11100;SDS011;5604;50.722;7.078;2023-09-08T05:56:52;9.23;;;8.33;;
11100;SDS011;5604;50.722;7.078;2023-09-08T05:59:21;11.03;;;8.13;;
11100;SDS011;5604;50.722;7.078;2023-09-08T06:01:50;9.27;;;8.20;;
11100;SDS011;5604;50.722;7.078;2023-09-08T06:04:18;9.17;;;8.27;;
11100;SDS011;5604;50.722;7.078;2023-09-08T06:06:46;8.67;;;7.87;;
11100;SDS011;5604;50.722;7.078;2023-09-08T06:09:15;8.40;;;7.47;;
11100;SDS011;5604;50.722;7.078;2023-09-08T06:11:43;8.07;;;7.10;;
11100;SDS011;5604;50.722;7.078;2023-09-08T06:14:11;9.20;;;8.30;;
11100;SDS011;5604;50.722;7.078;2023-09-08T06:16:41;8.60;;;7.77;;
11100;SDS011;5604;50.722;7.078;2023-09-08T06:19:11;11.20;;;8.50;;
11100;SDS011;5604;50.722;7.078;2023-09-08T06:21:39;9.10;;;8.20;;
11100;SDS011;5604;50.722;7.078;2023-09-08T06:24:08;8.30;;;7.33;;
11100;SDS011;5604;50.722;7.078;2023-09-08T06:26:37;8.97;;;7.93;;
11100;SDS011;5604;50.722;7.078;2023-09-08T06:29:06;8.87;;;7.80;;
11100;SDS011;5604;50.722;7.078;2023-09-08T06:31:34;9.97;;;8.03;;
11100;SDS011;5604;50.722;7.078;2023-09-08T06:34:03;8.23;;;7.43;;
11100;SDS011;5604;50.722;7.078;2023-09-08T06:36:32;8.33;;;7.43;;
11100;SDS011;5604;50.722;7.078;2023-09-08T06:39:01;8.23;;;7.43;;
11100;SDS011;5604;50.722;7.078;2023-09-08T06:41:31;8.40;;;7.50;;
11100;SDS011;5604;50.722;7.078;2023-09-08T06:44:01;9.20;;;7.47;;
11100;SDS011;5604;50.722;7.078;2023-09-08T06:46:29;8.23;;;7.10;;
11100;SDS011;5604;50.722;7.078;2023-09-08T06:48:57;8.27;;;6.10;;
11100;SDS011;5604;50.722;7.078;2023-09-08T06:51:29;8.07;;;6.17;;
11100;SDS011;5604;50.722;7.078;2023-09-08T06:53:59;7.27;;;6.13;;
11100;SDS011;5604;50.722;7.078;2023-09-08T06:56:35;8.20;;;6.40;;
11100;SDS011;5604;50.722;7.078;2023-09-08T06:59:04;7.30;;;5.67;;
11100;SDS011;5604;50.722;7.078;2023-09-08T07:01:33;8.17;;;5.17;;
11100;SDS011;5604;50.722;7.078;2023-09-08T07:04:02;5.27;;;4.77;;
11100;SDS011;5604;50.722;7.078;2023-09-08T07:06:31;5.33;;;4.83;;
11100;SDS011;5604;50.722;7.078;2023-09-08T07:09:02;5.17;;;4.67;;
11100;SDS011;5604;50.722;7.078;2023-09-08T07:11:31;6.20;;;4.93;;
11100;SDS011;5604;50.722;7.078;2023-09-08T07:13:59;6.27;;;4.73;;
11100;SDS011;5604;50.722;7.078;2023-09-08T07:16:27;4.60;;;4.20;;
11100;SDS011;5604;50.722;7.078;2023-09-08T07:18:58;7.33;;;4.37;;
11100;SDS011;5604;50.722;7.078;2023-09-08T07:21:35;5.87;;;4.17;;
11100;SDS011;5604;50.722;7.078;2023-09-08T07:24:09;5.37;;;4.30;;
11100;SDS011;5604;50.722;7.078;2023-09-08T07:34:04;8.23;;;4.50;;
11100;SDS011;5604;50.722;7.078;2023-09-08T07:39:46;6.97;;;4.57;;
11100;SDS011;5604;50.722;7.078;2023-09-08T07:42:16;4.47;;;4.00;;
11100;SDS011;5604;50.722;7.078;2023-09-08T07:44:54;4.13;;;3.73;;
11100;SDS011;5604;50.722;7.078;2023-09-08T07:47:51;4.53;;;3.37;;
11100;SDS011;5604;50.722;7.078;2023-09-08T07:50:31;4.27;;;3.87;;
11100;SDS011;5604;50.722;7.078;2023-09-08T07:54:28;4.77;;;3.77;;
11100;SDS011;5604;50.722;7.078;2023-09-08T07:56:57;4.33;;;3.93;;
11100;SDS011;5604;50.722;7.078;2023-09-08T07:59:26;4.80;;;3.83;;
11100;SDS011;5604;50.722;7.078;2023-09-08T08:01:54;5.77;;;4.10;;
11100;SDS011;5604;50.722;7.078;2023-09-08T08:04:22;7.17;;;4.13;;
11100;SDS011;5604;50.722;7.078;2023-09-08T08:11:10;4.67;;;3.50;;
11100;SDS011;5604;50.722;7.078;2023-09-08T08:13:40;4.00;;;3.60;;
11100;SDS011;5604;50.722;7.078;2023-09-08T08:16:08;5.03;;;3.80;;
11100;SDS011;5604;50.722;7.078;2023-09-08T08:18:36;5.77;;;3.57;;
11100;SDS011;5604;50.722;7.078;2023-09-08T08:21:05;4.07;;;3.67;;
11100;SDS011;5604;50.722;7.078;2023-09-08T08:23:34;4.87;;;4.03;;
11100;SDS011;5604;50.722;7.078;2023-09-08T08:26:03;4.20;;;3.80;;
11100;SDS011;5604;50.722;7.078;2023-09-08T08:28:31;4.07;;;3.57;;
11100;SDS011;5604;50.722;7.078;2023-09-08T08:31:01;5.37;;;4.03;;
11100;SDS011;5604;50.722;7.078;2023-09-08T08:33:29;5.13;;;4.20;;
11100;SDS011;5604;50.722;7.078;2023-09-08T08:35:57;7.27;;;4.00;;
11100;SDS011;5604;50.722;7.078;2023-09-08T08:38:25;4.53;;;3.97;;
11100;SDS011;5604;50.722;7.078;2023-09-08T08:40:53;4.40;;;4.00;;
11100;SDS011;5604;50.722;7.078;2023-09-08T08:43:21;4.30;;;3.43;;
11100;SDS011;5604;50.722;7.078;2023-09-08T08:45:51;3.90;;;3.60;;
11100;SDS011;5604;50.722;7.078;2023-09-08T08:48:21;4.20;;;3.80;;
11100;SDS011;5604;50.722;7.078;2023-09-08T08:50:51;4.13;;;3.70;;
11100;SDS011;5604;50.722;7.078;2023-09-08T08:53:20;4.57;;;3.93;;
11100;SDS011;5604;50.722;7.078;2023-09-08T08:56:30;4.63;;;3.80;;
11100;SDS011;5604;50.722;7.078;2023-09-08T08:59:44;4.23;;;3.83;;
11100;SDS011;5604;50.722;7.078;2023-09-08T09:02:44;4.10;;;3.77;;
11100;SDS011;5604;50.722;7.078;2023-09-08T09:05:39;5.97;;;4.17;;
11100;SDS011;5604;50.722;7.078;2023-09-08T09:08:16;5.43;;;3.93;;
11100;SDS011;5604;50.722;7.078;2023-09-08T09:10:45;5.20;;;4.20;;
11100;SDS011;5604;50.722;7.078;2023-09-08T09:13:16;3.97;;;3.63;;
11100;SDS011;5604;50.722;7.078;2023-09-08T09:15:44;5.73;;;4.13;;
11100;SDS011;5604;50.722;7.078;2023-09-08T09:20:21;4.60;;;4.00;;
11100;SDS011;5604;50.722;7.078;2023-09-08T09:22:50;3.87;;;3.53;;
11100;SDS011;5604;50.722;7.078;2023-09-08T09:25:22;4.13;;;3.60;;
11100;SDS011;5604;50.722;7.078;2023-09-08T09:27:52;3.60;;;3.30;;
11100;SDS011;5604;50.722;7.078;2023-09-08T09:30:21;4.10;;;3.70;;
11100;SDS011;5604;50.722;7.078;2023-09-08T09:32:58;4.50;;;3.90;;
11100;SDS011;5604;50.722;7.078;2023-09-08T09:35:40;4.30;;;3.97;;
11100;SDS011;5604;50.722;7.078;2023-09-08T09:38:09;5.73;;;3.77;;
11100;SDS011;5604;50.722;7.078;2023-09-08T09:40:37;3.90;;;3.50;;
11100;SDS011;5604;50.722;7.078;2023-09-08T09:44:55;4.57;;;3.80;;
11100;SDS011;5604;50.722;7.078;2023-09-08T09:47:23;3.83;;;3.50;;
11100;SDS011;5604;50.722;7.078;2023-09-08T09:49:52;4.80;;;3.63;;
11100;SDS011;5604;50.722;7.078;2023-09-08T09:52:21;5.80;;;3.87;;
11100;SDS011;5604;50.722;7.078;2023-09-08T09:54:56;3.90;;;3.60;;
11100;SDS011;5604;50.722;7.078;2023-09-08T09:57:25;4.87;;;3.53;;
11100;SDS011;5604;50.722;7.078;2023-09-08T09:59:55;3.93;;;3.53;;
11100;SDS011;5604;50.722;7.078;2023-09-08T10:02:30;3.90;;;3.60;;
11100;SDS011;5604;50.722;7.078;2023-09-08T10:04:58;3.63;;;3.30;;
11100;SDS011;5604;50.722;7.078;2023-09-08T10:07:38;4.67;;;3.43;;
11100;SDS011;5604;50.722;7.078;2023-09-08T10:10:07;4.23;;;3.63;;
11100;SDS011;5604;50.722;7.078;2023-09-08T10:12:36;4.37;;;3.60;;
11100;SDS011;5604;50.722;7.078;2023-09-08T10:15:06;5.33;;;4.20;;
11100;SDS011;5604;50.722;7.078;2023-09-08T10:17:36;4.03;;;3.63;;
11100;SDS011;5604;50.722;7.078;2023-09-08T10:20:05;4.27;;;3.27;;
11100;SDS011;5604;50.722;7.078;2023-09-08T10:22:38;5.40;;;3.47;;
11100;SDS011;5604;50.722;7.078;2023-09-08T10:25:08;4.20;;;3.90;;
11100;SDS011;5604;50.722;7.078;2023-09-08T10:27:37;6.30;;;3.80;;
11100;SDS011;5604;50.722;7.078;2023-09-08T10:30:07;5.67;;;3.90;;
11100;SDS011;5604;50.722;7.078;2023-09-08T10:32:36;5.17;;;3.57;;
11100;SDS011;5604;50.722;7.078;2023-09-08T10:35:04;4.93;;;4.03;;
11100;SDS011;5604;50.722;7.078;2023-09-08T10:37:33;3.60;;;3.17;;
11100;SDS011;5604;50.722;7.078;2023-09-08T10:40:20;3.90;;;3.50;;
11100;SDS011;5604;50.722;7.078;2023-09-08T10:42:49;7.00;;;3.77;;
11100;SDS011;5604;50.722;7.078;2023-09-08T10:45:35;4.20;;;3.90;;
11100;SDS011;5604;50.722;7.078;2023-09-08T10:48:03;4.27;;;3.97;;
11100;SDS011;5604;50.722;7.078;2023-09-08T10:50:32;6.13;;;4.17;;
11100;SDS011;5604;50.722;7.078;2023-09-08T10:53:07;4.40;;;4.00;;
11100;SDS011;5604;50.722;7.078;2023-09-08T10:55:39;4.37;;;3.70;;
11100;SDS011;5604;50.722;7.078;2023-09-08T10:58:10;6.17;;;4.00;;
11100;SDS011;5604;50.722;7.078;2023-09-08T11:00:46;5.87;;;4.40;;
11100;SDS011;5604;50.722;7.078;2023-09-08T11:03:24;8.13;;;3.80;;
11100;SDS011;5604;50.722;7.078;2023-09-08T11:05:54;4.40;;;4.00;;
11100;SDS011;5604;50.722;7.078;2023-09-08T11:08:23;5.77;;;3.83;;
11100;SDS011;5604;50.722;7.078;2023-09-08T11:10:54;4.60;;;3.37;;
11100;SDS011;5604;50.722;7.078;2023-09-08T11:13:23;5.17;;;3.93;;
11100;SDS011;5604;50.722;7.078;2023-09-08T11:15:53;7.47;;;3.90;;
11100;SDS011;5604;50.722;7.078;2023-09-08T11:18:25;4.80;;;3.90;;
11100;SDS011;5604;50.722;7.078;2023-09-08T11:20:53;5.80;;;3.83;;
11100;SDS011;5604;50.722;7.078;2023-09-08T11:23:22;4.70;;;3.50;;
11100;SDS011;5604;50.722;7.078;2023-09-08T11:25:51;4.67;;;3.70;;
11100;SDS011;5604;50.722;7.078;2023-09-08T11:28:21;5.00;;;3.40;;
11100;SDS011;5604;50.722;7.078;2023-09-08T11:30:49;4.17;;;3.77;;
11100;SDS011;5604;50.722;7.078;2023-09-08T11:33:20;6.30;;;4.07;;
11100;SDS011;5604;50.722;7.078;2023-09-08T11:35:52;3.87;;;3.50;;
11100;SDS011;5604;50.722;7.078;2023-09-08T11:38:25;4.20;;;3.80;;
11100;SDS011;5604;50.722;7.078;2023-09-08T11:40:54;5.73;;;3.87;;
11100;SDS011;5604;50.722;7.078;2023-09-08T11:43:24;4.10;;;3.70;;
11100;SDS011;5604;50.722;7.078;2023-09-08T11:45:56;5.07;;;3.80;;
11100;SDS011;5604;50.722;7.078;2023-09-08T11:48:26;6.07;;;3.90;;
11100;SDS011;5604;50.722;7.078;2023-09-08T11:50:55;5.97;;;3.80;;
11100;SDS011;5604;50.722;7.078;2023-09-08T11:53:23;5.63;;;4.10;;
11100;SDS011;5604;50.722;7.078;2023-09-08T11:55:51;5.60;;;3.50;;
11100;SDS011;5604;50.722;7.078;2023-09-08T11:58:19;4.87;;;4.10;;
11100;SDS011;5604;50.722;7.078;2023-09-08T12:00:47;4.20;;;3.80;;
11100;SDS011;5604;50.722;7.078;2023-09-08T12:03:16;4.53;;;3.93;;
11100;SDS011;5604;50.722;7.078;2023-09-08T12:05:50;3.97;;;3.57;;
11100;SDS011;5604;50.722;7.078;2023-09-08T12:08:19;4.33;;;3.93;;
11100;SDS011;5604;50.722;7.078;2023-09-08T12:10:47;3.53;;;3.23;;
11100;SDS011;5604;50.722;7.078;2023-09-08T12:13:20;7.40;;;3.90;;
11100;SDS011;5604;50.722;7.078;2023-09-08T12:15:48;5.23;;;3.83;;
11100;SDS011;5604;50.722;7.078;2023-09-08T12:18:17;4.27;;;3.83;;
11100;SDS011;5604;50.722;7.078;2023-09-08T12:20:46;4.73;;;4.03;;
11100;SDS011;5604;50.722;7.078;2023-09-08T12:23:31;4.20;;;3.80;;
11100;SDS011;5604;50.722;7.078;2023-09-08T12:25:59;6.13;;;3.90;;
11100;SDS011;5604;50.722;7.078;2023-09-08T12:28:30;3.70;;;3.40;;
11100;SDS011;5604;50.722;7.078;2023-09-08T12:30:58;4.23;;;3.83;;
11100;SDS011;5604;50.722;7.078;2023-09-08T12:33:27;4.40;;;3.87;;
11100;SDS011;5604;50.722;7.078;2023-09-08T12:35:56;5.43;;;4.17;;
11100;SDS011;5604;50.722;7.078;2023-09-08T12:38:30;5.00;;;3.80;;
11100;SDS011;5604;50.722;7.078;2023-09-08T12:40:59;4.13;;;3.73;;
11100;SDS011;5604;50.722;7.078;2023-09-08T12:43:29;5.83;;;3.83;;
11100;SDS011;5604;50.722;7.078;2023-09-08T12:45:57;4.20;;;3.73;;
11100;SDS011;5604;50.722;7.078;2023-09-08T12:48:26;4.10;;;3.77;;
11100;SDS011;5604;50.722;7.078;2023-09-08T12:50:56;5.70;;;3.60;;
11100;SDS011;5604;50.722;7.078;2023-09-08T12:53:26;4.17;;;3.70;;
11100;SDS011;5604;50.722;7.078;2023-09-08T12:55:54;5.47;;;3.80;;
11100;SDS011;5604;50.722;7.078;2023-09-08T12:58:26;4.13;;;3.73;;
11100;SDS011;5604;50.722;7.078;2023-09-08T13:00:55;3.90;;;3.60;;
11100;SDS011;5604;50.722;7.078;2023-09-08T13:03:24;4.00;;;3.70;;
11100;SDS011;5604;50.722;7.078;2023-09-08T13:05:52;4.47;;;3.63;;
11100;SDS011;5604;50.722;7.078;2023-09-08T13:08:21;4.17;;;3.80;;
11100;SDS011;5604;50.722;7.078;2023-09-08T13:10:50;4.13;;;3.73;;
11100;SDS011;5604;50.722;7.078;2023-09-08T13:13:18;4.30;;;3.90;;
11100;SDS011;5604;50.722;7.078;2023-09-08T13:15:46;4.63;;;3.60;;
11100;SDS011;5604;50.722;7.078;2023-09-08T13:18:17;7.63;;;3.83;;
11100;SDS011;5604;50.722;7.078;2023-09-08T13:20:45;5.90;;;3.80;;
11100;SDS011;5604;50.722;7.078;2023-09-08T13:23:14;4.13;;;3.73;;
11100;SDS011;5604;50.722;7.078;2023-09-08T13:25:43;5.63;;;3.60;;
11100;SDS011;5604;50.722;7.078;2023-09-08T13:28:14;6.90;;;4.43;;
11100;SDS011;5604;50.722;7.078;2023-09-08T13:30:45;4.40;;;3.90;;
11100;SDS011;5604;50.722;7.078;2023-09-08T13:33:13;7.03;;;4.53;;
11100;SDS011;5604;50.722;7.078;2023-09-08T13:35:41;4.57;;;3.70;;
11100;SDS011;5604;50.722;7.078;2023-09-08T13:38:12;5.33;;;4.10;;
11100;SDS011;5604;50.722;7.078;2023-09-08T13:40:41;5.10;;;3.73;;
11100;SDS011;5604;50.722;7.078;2023-09-08T13:43:10;5.73;;;3.80;;
11100;SDS011;5604;50.722;7.078;2023-09-08T13:45:39;4.33;;;3.90;;
11100;SDS011;5604;50.722;7.078;2023-09-08T13:48:09;4.77;;;3.87;;
11100;SDS011;5604;50.722;7.078;2023-09-08T13:50:38;7.50;;;4.30;;
11100;SDS011;5604;50.722;7.078;2023-09-08T13:53:10;4.07;;;3.77;;
11100;SDS011;5604;50.722;7.078;2023-09-08T13:55:40;4.37;;;3.97;;
11100;SDS011;5604;50.722;7.078;2023-09-08T13:58:12;4.33;;;3.93;;
11100;SDS011;5604;50.722;7.078;2023-09-08T14:00:41;4.43;;;4.03;;
11100;SDS011;5604;50.722;7.078;2023-09-08T14:03:12;6.33;;;4.13;;
11100;SDS011;5604;50.722;7.078;2023-09-08T14:05:43;5.67;;;3.87;;
11100;SDS011;5604;50.722;7.078;2023-09-08T14:08:19;4.53;;;4.10;;
11100;SDS011;5604;50.722;7.078;2023-09-08T14:10:54;5.13;;;3.80;;
11100;SDS011;5604;50.722;7.078;2023-09-08T14:13:28;7.03;;;4.47;;
11100;SDS011;5604;50.722;7.078;2023-09-08T14:15:56;5.17;;;4.13;;
11100;SDS011;5604;50.722;7.078;2023-09-08T14:18:28;5.17;;;4.00;;
11100;SDS011;5604;50.722;7.078;2023-09-08T14:20:57;4.40;;;4.00;;
11100;SDS011;5604;50.722;7.078;2023-09-08T14:23:26;4.30;;;3.90;;
11100;SDS011;5604;50.722;7.078;2023-09-08T14:25:55;4.20;;;3.80;;
11100;SDS011;5604;50.722;7.078;2023-09-08T14:28:25;3.93;;;3.63;;
11100;SDS011;5604;50.722;7.078;2023-09-08T14:30:54;4.53;;;4.10;;
11100;SDS011;5604;50.722;7.078;2023-09-08T14:33:23;4.90;;;4.23;;
11100;SDS011;5604;50.722;7.078;2023-09-08T14:35:51;3.90;;;3.50;;
11100;SDS011;5604;50.722;7.078;2023-09-08T14:38:21;4.23;;;3.77;;
11100;SDS011;5604;50.722;7.078;2023-09-08T14:40:55;4.73;;;4.23;;
11100;SDS011;5604;50.722;7.078;2023-09-08T14:43:25;4.73;;;4.30;;
11100;SDS011;5604;50.722;7.078;2023-09-08T14:45:55;4.37;;;3.97;;
11100;SDS011;5604;50.722;7.078;2023-09-08T14:48:24;4.40;;;3.83;;
11100;SDS011;5604;50.722;7.078;2023-09-08T14:50:53;4.27;;;3.83;;
11100;SDS011;5604;50.722;7.078;2023-09-08T14:53:22;6.00;;;3.87;;
11100;SDS011;5604;50.722;7.078;2023-09-08T14:55:51;4.27;;;3.90;;
11100;SDS011;5604;50.722;7.078;2023-09-08T14:58:24;4.70;;;3.57;;
11100;SDS011;5604;50.722;7.078;2023-09-08T15:01:00;5.07;;;4.30;;
11100;SDS011;5604;50.722;7.078;2023-09-08T15:03:31;4.63;;;4.20;;
11100;SDS011;5604;50.722;7.078;2023-09-08T15:06:00;4.50;;;4.00;;
11100;SDS011;5604;50.722;7.078;2023-09-08T15:08:28;4.33;;;3.93;;
11100;SDS011;5604;50.722;7.078;2023-09-08T15:10:57;4.53;;;4.10;;
11100;SDS011;5604;50.722;7.078;2023-09-08T15:13:25;4.07;;;3.77;;
11100;SDS011;5604;50.722;7.078;2023-09-08T15:15:53;4.43;;;3.50;;
11100;SDS011;5604;50.722;7.078;2023-09-08T15:18:23;4.70;;;4.10;;
11100;SDS011;5604;50.722;7.078;2023-09-08T15:20:54;3.83;;;3.53;;
11100;SDS011;5604;50.722;7.078;2023-09-08T15:23:22;7.50;;;3.93;;
11100;SDS011;5604;50.722;7.078;2023-09-08T15:25:51;3.93;;;3.63;;
11100;SDS011;5604;50.722;7.078;2023-09-08T15:28:20;5.20;;;4.33;;
11100;SDS011;5604;50.722;7.078;2023-09-08T15:30:48;4.20;;;3.70;;
11100;SDS011;5604;50.722;7.078;2023-09-08T15:33:18;4.57;;;3.83;;
11100;SDS011;5604;50.722;7.078;2023-09-08T15:35:48;5.77;;;4.10;;
11100;SDS011;5604;50.722;7.078;2023-09-08T15:38:17;5.07;;;3.83;;